Home > Products > Valid Products > TAF

000
FTUS42 KTAE 301700
TAFABY
TAF
KABY 301720Z 3018/3118 34005KT P6SM SKC=



000
FTUS42 KTAE 301700
TAFTLH
TAF
KTLH 301720Z 3018/3118 VRB03KT P6SM SCT029 BKN070
     FM310200 31005KT P6SM SKC=



000
FTUS42 KTAE 301700
TAFVLD
TAF
KVLD 301720Z 3018/3118 31003KT P6SM VCSH OVC040
     FM302000 31003KT P6SM SCT250
     FM311400 34006KT P6SM SKC=



000
FTUS42 KTAE 301700
TAFDHN
TAF
KDHN 301720Z 3018/3118 34008KT P6SM SKC=



000
FTUS42 KTAE 301500 AAA
TAFTLH
TAF AMD
KTLH 301507Z 3015/3112 36009KT P6SM SCT035 BKN080
      TEMPO 3015/3017 4SM TSRA BKN035CB
     FM310200 31003KT P6SM SKC=



000
FTUS42 KTAE 301100
TAFVLD
TAF
KVLD 301120Z 3012/3112 01009KT P6SM FEW030
      TEMPO 3012/3014 BKN025
     FM301400 36006KT P6SM SCT050 SCT250
     FM310300 00000KT P6SM SCT250=



000
FTUS42 KTAE 301100
TAFDHN
TAF
KDHN 301120Z 3012/3112 01006KT P6SM BKN050 OVC100
     FM301400 36010KT P6SM SKC
     FM310300 33004KT P6SM SKC=



000
FTUS42 KTAE 301100
TAFABY
TAF
KABY 301120Z 3012/3112 34004KT P6SM SCT250
     FM301400 36009KT P6SM SKC
     FM310300 34003KT P6SM SKC=



000
FTUS42 KTAE 301100
TAFTLH
TAF
KTLH 301120Z 3012/3112 01005KT P6SM SCT025 SCT100
      TEMPO 3012/3014 BKN025
     FM301400 36007KT P6SM SCT250
     FM310200 31003KT P6SM SKC=



000
FTUS42 KTAE 301000 AAB
TAFVLD
TAF AMD
KVLD 301052Z 3011/3106 VRB05KT P6SM SCT013
     FM301300 36006KT P6SM SCT030 SCT250
     FM310300 00000KT P6SM SCT250=



000
FTUS42 KTAE 301000 AAB
TAFVLD
TAF AMD
KVLD 301052Z 3011/3106 VRB05KT P6SM SCT013
     FM301300 36006KT P6SM SCT030 SCT250
     FM310300 00000KT P6SM SCT250=



000
FTUS42 KTAE 301000 AAD
TAFTLH
TAF AMD
KTLH 301051Z 3011/3106 03005KT P6SM SCT015 SCT100
     FM301400 36007KT P6SM SCT250
     FM310200 31003KT P6SM SKC=



000
FTUS42 KTAE 301000 AAD
TAFTLH
TAF AMD
KTLH 301051Z 3011/3106 03005KT P6SM SCT015 SCT100
     FM301400 36007KT P6SM SCT250
     FM310200 31003KT P6SM SKC=



000
FTUS42 KTAE 301000 AAC
TAFTLH
TAF AMD
KTLH 301019Z 3010/3106 36008KT P6SM OVC013
     FM301400 36007KT P6SM SCT250
     FM310200 31003KT P6SM SKC=



000
FTUS42 KTAE 300800 AAB
TAFTLH
TAF AMD
KTLH 300801Z 3008/3106 02005KT P6SM BKN250
      TEMPO 3008/3011 5SM BR BKN030
     FM301400 36007KT P6SM SCT250
     FM310200 31003KT P6SM SKC=



000
FTUS42 KTAE 300800 AAA
TAFVLD
TAF AMD
KVLD 300801Z 3008/3106 00000KT P6SM OVC012
     FM300900 00000KT 4SM BR SCT070 SCT250
     FM301300 36006KT P6SM SCT100 SCT250
     FM310300 00000KT P6SM SCT250=



000
FTUS42 KTAE 300600 AAB
TAFDHN
TAF AMD
KDHN 300659Z 3007/3106 02004KT P6SM BKN035
     FM300800 36005KT P6SM SCT035
     FM301400 36010KT P6SM FEW250
     FM310300 33004KT P6SM SKC=



000
FTUS42 KTAE 300600 AAA
TAFTLH
TAF AMD
KTLH 300658Z 3007/3106 33003KT P6SM BKN030
      TEMPO 3009/3011 4SM BR
     FM301400 36007KT P6SM SCT250
     FM310200 31003KT P6SM SKC=



000
FTUS42 KTAE 300600 AAA
TAFABY
TAF AMD
KABY 300626Z 3006/3106 35007KT P6SM FEW012 BKN025
     FM300900 33003KT P6SM SCT015 SCT100
     FM301400 36009KT P6SM FEW250
     FM310300 34003KT P6SM SKC=



000
FTUS42 KTAE 300600 AAA
TAFDHN
TAF AMD
KDHN 300602Z 3006/3106 01010G17KT P6SM FEW014 BKN110
     FM300800 36005KT P6SM SCT015 SCT100
     FM301400 36010KT P6SM FEW250
     FM310300 33004KT P6SM SKC=



000
FTUS42 KTAE 300500 RRA
TAFDHN
TAF
KDHN 300541Z 3006/3106 35006KT P6SM BKN014 OVC100
     FM300800 36005KT P6SM SCT015 SCT100
     FM301400 36010KT P6SM FEW250
     FM310300 33004KT P6SM SKC=



000
FTUS42 KTAE 300500 RRA
TAFTLH
TAF
KTLH 300541Z 3006/3106 22003KT P6SM SCT070 BKN250
      TEMPO 3009/3011 4SM BR BKN070
     FM301400 36007KT P6SM SCT250
     FM310200 31003KT P6SM SKC=



000
FTUS42 KTAE 300500 RRA
TAFVLD
TAF
KVLD 300541Z 3006/3106 00000KT P6SM BKN250
     FM300900 00000KT 4SM BR SCT070 SCT250
     FM301300 36006KT P6SM SCT100 SCT250
     FM310300 00000KT P6SM SCT250=



000
FTUS42 KTAE 300500 RRA
TAFABY
TAF
KABY 300541Z 3006/3106 34004KT P6SM BKN014
     FM300900 33003KT P6SM SCT015 SCT100
     FM301400 36009KT P6SM FEW250
     FM310300 34003KT P6SM SKC=



000
FTUS42 KTAE 300500 AAA
TAFABY
TAF AMD
KABY 300517Z 3005/3024 34004KT P6SM BKN014
     FM300800 33003KT P6SM BKN250
     FM301400 36009KT P6SM FEW250=



000
FTUS42 KTAE 300300 AAA
TAFDHN
TAF AMD
KDHN 300350Z 3004/3024 35008KT P6SM BKN012 BKN120
     FM300600 33004KT P6SM SCT250
     FM301400 36010KT P6SM FEW250=



000
FTUS42 KTAE 292300
TAFVLD
TAF
KVLD 292320Z 3000/3024 22005KT P6SM BKN250
     FM300900 00000KT 4SM BR SCT250
     FM301400 36006KT P6SM FEW250=



000
FTUS42 KTAE 292300
TAFABY
TAF
KABY 292320Z 3000/3024 24006KT P6SM VCSH BKN040
     FM300300 33003KT P6SM BKN250
     FM301400 36009KT P6SM FEW250=



000
FTUS42 KTAE 292300
TAFTLH
TAF
KTLH 292320Z 3000/3024 18003KT P6SM VCSH SCT040 BKN110 BKN250
     FM300500 35004KT P6SM SCT250
     FM301400 36008KT P6SM FEW250=



000
FTUS42 KTAE 292300
TAFDHN
TAF
KDHN 292320Z 3000/3024 22005KT P6SM VCSH SCT040 BKN100
     FM300200 33004KT P6SM SCT250
     FM301400 36010KT P6SM FEW250=



000
FTUS42 KTAE 292200 AAA
TAFABY
TAF AMD
KABY 292216Z 2922/3018 22006KT P6SM VCSH SCT040
      TEMPO 2922/2923 25009G15KT 3SM +RA BKN040
     FM300300 33003KT P6SM BKN250
     FM301400 36008KT P6SM FEW250=



000
FTUS42 KTAE 291700
TAFDHN
TAF
KDHN 291720Z 2918/3018 23010KT P6SM SCT020 BKN030 BKN060
     FM292000 24007KT P6SM VCTS SCT040CB BKN100
     FM300200 33004KT P6SM SCT250
     FM301400 35010KT P6SM FEW250=



000
FTUS42 KTAE 291700
TAFTLH
TAF
KTLH 291720Z 2918/3018 VRB03KT P6SM VCSH SCT030 BKN110 BKN250
     FM300400 35005KT P6SM SCT250=



000
FTUS42 KTAE 291700
TAFABY
TAF
KABY 291720Z 2918/3018 22006KT P6SM VCSH SCT040
     FM300300 33003KT P6SM BKN250
     FM301400 36008KT P6SM FEW250=



000
FTUS42 KTAE 291700
TAFVLD
TAF
KVLD 291720Z 2918/3018 22005KT P6SM BKN250
     FM300800 00000KT 4SM BR SCT250
     FM301200 01005KT P6SM SCT250=



000
FTUS42 KTAE 291300 AAA
TAFTLH
TAF AMD
KTLH 291358Z 2914/3012 00000KT 5SM BR SCT002
      TEMPO 2914/2915 1SM BR BKN002
     FM291500 20005KT P6SM SCT050
     FM300200 00000KT P6SM BKN250=



000
FTUS42 KTAE 291100
TAFTLH
TAF
KTLH 291121Z 2912/3012 00000KT 1/4SM FG VV001
     FM291300 20005KT P6SM SCT004 BKN100
     FM300200 00000KT P6SM BKN250=



000
FTUS42 KTAE 291100
TAFABY
TAF
KABY 291121Z 2912/3012 00000KT P6SM BKN250
     FM291400 18005KT P6SM SCT040 BKN100
     FM300300 33003KT P6SM BKN250=



000
FTUS42 KTAE 291100
TAFDHN
TAF
KDHN 291121Z 2912/3012 20004KT P6SM SCT100 BKN250
     FM291300 22005KT P6SM SCT050 BKN100
     FM292000 24007KT P6SM VCTS SCT040CB BKN100
     FM300200 33004KT P6SM BKN250=



000
FTUS42 KTAE 291100
TAFVLD
TAF
KVLD 291121Z 2912/3012 00000KT 4SM BR BKN250
     FM291300 18005KT P6SM SCT040 SCT100 BKN250
     FM300100 00000KT P6SM BKN100 BKN250
     FM300800 00000KT 4SM BR SCT250=



000
FTUS42 KTAE 290900 AAA
TAFTLH
TAF AMD
KTLH 290925Z 2909/3006 00000KT P6SM BKN002
      TEMPO 2910/2912 5SM BR FEW010 SCT100
     FM291500 20005KT P6SM SCT040 BKN100
     FM300200 00000KT P6SM BKN250=



000
FTUS42 KTAE 290500 CCA
TAFVLD
TAF COR
KVLD 290556Z 2906/3006 00000KT 3SM HZ BKN250
     FM291300 18005KT P6SM SCT040 SCT100 BKN250
     FM300100 00000KT P6SM BKN100 BKN250=



000
FTUS42 KTAE 290500 CCA
TAFABY
TAF COR
KABY 290544Z 2906/3006 19004KT P6SM BKN250
     FM291400 18005KT P6SM SCT040 BKN100 PROB30 2920/3002 5SM -TSRA
      BKN040CB OVC100
     FM300300 33003KT P6SM BKN250=



000
FTUS42 KTAE 290500 RRA
TAFABY
TAF
KABY 290541Z 2906/3006 19004KT P6SM BKN250
     FM291400 18005KT P6SM SCT040 BKN100=



000
FTUS42 KTAE 290500 RRA
TAFVLD
TAF
KVLD 290541Z 2906/3006 00000KT 3SM HZ SKC
     FM291000 00000KT 3SM BR SCT001
     FM291300 18005KT P6SM SCT040=



000
FTUS42 KTAE 290500 RRA
TAFDHN
TAF
KDHN 290541Z 2906/3006 21006KT P6SM BKN250
     FM291300 22005KT P6SM SCT050 BKN100 PROB30 2916/2922 5SM -TSRA
      BKN035CB OVC100
     FM300200 33004KT P6SM BKN250=



000
FTUS42 KTAE 290500 RRA
TAFTLH
TAF
KTLH 290541Z 2906/3006 00000KT P6SM BKN250
      TEMPO 2910/2912 5SM BR FEW010 SCT100
     FM291500 20005KT P6SM SCT040 BKN100
     FM300200 00000KT P6SM BKN250=



000
FTUS42 KTAE 290400 AAA
TAFVLD
TAF AMD
KVLD 290401Z 2904/2924 00000KT 5SM HZ SCT250
     FM291000 00000KT 3SM BR SCT001
     FM291300 18005KT P6SM SCT040=



000
FTUS42 KTAE 290400 AAA
TAFVLD
TAF AMD
KVLD 290401Z 2904/2924 00000KT 5SM HZ SCT250
     FM291000 00000KT 3SM BR SCT001
     FM291300 18005KT P6SM SCT040=



000
FTUS42 KTAE 282300
TAFDHN
TAF
KDHN 282320Z 2900/2924 VRB03KT P6SM SCT050
     FM291000 00000KT 3SM BR SCT001
     FM291300 22005KT P6SM SCT040=



000
FTUS42 KTAE 282300
TAFTLH
TAF
KTLH 282320Z 2900/2924 VRB03KT P6SM SCT250
     FM291000 00000KT 3SM BR SCT001
     FM291300 18005KT P6SM SCT040=



000
FTUS42 KTAE 282300
TAFABY
TAF
KABY 282320Z 2900/2924 00000KT P6SM SCT250
     FM291000 00000KT 3SM BR SCT001
     FM291300 22005KT P6SM SCT040=



000
FTUS42 KTAE 282300
TAFVLD
TAF
KVLD 282320Z 2900/2924 00000KT P6SM SCT250
     FM291000 00000KT 3SM BR SCT001
     FM291300 18005KT P6SM SCT040=



000
FTUS42 KTAE 281700
TAFABY
TAF
KABY 281722Z 2818/2918 22005KT P6SM FEW030
     FM290900 00000KT 3SM BR SCT003
     FM291500 21004KT P6SM FEW040 SCT250=



000
FTUS42 KTAE 281700
TAFTLH
TAF
KTLH 281722Z 2818/2918 19004KT P6SM FEW030
     FM290700 00000KT 3SM BR SKC
     FM291000 00000KT 1SM BR BKN001
     FM291500 21005KT P6SM FEW060 SCT250=



000
FTUS42 KTAE 281700
TAFVLD
TAF
KVLD 281722Z 2818/2918 20003KT P6SM FEW040
     FM290700 00000KT 3SM BR SKC
     FM291000 00000KT 1SM BR BKN001
     FM291500 20003KT P6SM FEW040 SCT250=



000
FTUS42 KTAE 281700
TAFDHN
TAF
KDHN 281722Z 2818/2918 22005KT P6SM BKN035
     FM290700 00000KT 2SM BR BKN001
     FM291500 24007KT P6SM BKN030=



000
FTUS42 KTAE 281500 AAD
TAFTLH
TAF AMD
KTLH 281542Z 2816/2912 00000KT P6SM SCT004
     FM281630 17004KT P6SM FEW030
     FM290700 00000KT 2SM BR BKN001=



000
FTUS42 KTAE 281500 AAC
TAFTLH
TAF AMD
KTLH 281505Z 2815/2912 00000KT 2SM BR VV002
     FM281630 17004KT P6SM FEW030
     FM290700 00000KT 2SM BR BKN001=



000
FTUS42 KTAE 281500 AAC
TAFABY
TAF AMD
KABY 281505Z 2815/2912 00000KT 4SM BR BKN001
     FM281600 22005KT P6SM FEW030
     FM290900 00000KT 3SM BR SCT003=



000
FTUS42 KTAE 281400 AAB
TAFVLD
TAF AMD
KVLD 281429Z 2814/2912 00000KT 1/4SM FG VV001
     FM281530 16003KT 4SM BR SCT002
     FM281600 16005KT P6SM FEW030
     FM290800 00000KT 2SM BR BKN001=



000
FTUS42 KTAE 281400 AAB
TAFTLH
TAF AMD
KTLH 281409Z 2814/2912 00000KT 1SM BR VV002
     FM281500 17003KT 4SM BR SCT002
     FM281600 17004KT P6SM FEW030
     FM290700 00000KT 2SM BR BKN001=



000
FTUS42 KTAE 281400 AAB
TAFDHN
TAF AMD
KDHN 281404Z 2814/2912 00000KT 6SM BR SKC
     FM281500 21005KT P6SM FEW030
     FM290700 00000KT 2SM BR BKN001=



000
FTUS42 KTAE 281300 AAA
TAFDHN
TAF AMD
KDHN 281342Z 2814/2912 00000KT 2SM BR SCT001
     FM281500 21004KT 5SM BR SCT003
     FM281600 21005KT P6SM FEW030
     FM290700 00000KT 2SM BR BKN001=



000
FTUS42 KTAE 281300 AAA
TAFVLD
TAF AMD
KVLD 281341Z 2814/2912 00000KT 1/4SM FG VV001
     FM281500 16003KT 4SM BR SCT002
     FM281600 16005KT P6SM FEW030
     FM290800 00000KT 2SM BR BKN001=



000
FTUS42 KTAE 281300 AAB
TAFABY
TAF AMD
KABY 281340Z 2814/2912 00000KT 1/4SM FG OVC001
     FM281500 22004KT 4SM BR SCT002
     FM281600 22005KT P6SM FEW030
     FM290900 00000KT 3SM BR SCT003=



000
FTUS42 KTAE 281300 AAA
TAFTLH
TAF AMD
KTLH 281339Z 2814/2912 00000KT 1/4SM FG VV002
     FM281500 17003KT 4SM BR SCT002
     FM281600 17004KT P6SM FEW030
     FM290700 00000KT 2SM BR BKN001=



000
FTUS42 KTAE 281100 AAA
TAFABY
TAF AMD
KABY 281151Z 2812/2912 00000KT 2SM BR BKN003
      TEMPO 2812/2814 1/2SM FG OVC001
     FM281400 22005KT P6SM FEW030
     FM290900 00000KT 3SM BR SCT003=



000
FTUS42 KTAE 281100
TAFVLD
TAF
KVLD 281134Z 2812/2912 00000KT 1/4SM FG VV001
     FM281400 16005KT P6SM FEW030
     FM290800 00000KT 2SM BR BKN001=



000
FTUS42 KTAE 281100
TAFABY
TAF
KABY 281134Z 2812/2912 00000KT 2SM BR BKN003
     FM281400 22005KT P6SM FEW030
     FM290900 00000KT 3SM BR SCT003=



000
FTUS42 KTAE 281100
TAFTLH
TAF
KTLH 281134Z 2812/2912 00000KT 1/4SM FG VV001
     FM281400 17005KT P6SM FEW030
     FM290700 00000KT 2SM BR BKN001=



000
FTUS42 KTAE 281100
TAFDHN
TAF
KDHN 281134Z 2812/2912 00000KT 1/4SM FG VV002
     FM281400 21004KT P6SM SCT030
     FM290700 00000KT 2SM BR BKN001=



000
FTUS42 KTAE 280700 AAA
TAFABY
TAF AMD
KABY 280746Z 2808/2906 00000KT 6SM BR SKC
     FM281100 00000KT 4SM BR SCT002
     FM281300 22005KT P6SM FEW030=



000
FTUS42 KTAE 280500
TAFVLD
TAF
KVLD 280532Z 2806/2906 00000KT 1SM BR SCT002
     FM280700 00000KT 1/4SM FG VV001
     FM281400 16005KT P6SM FEW030=



000
FTUS42 KTAE 280500
TAFDHN
TAF
KDHN 280532Z 2806/2906 00000KT 5SM BR SKC
     FM280800 00000KT 1/4SM FG VV002
     FM281300 VRB03KT P6SM SCT030
     FM281800 20004KT P6SM BKN030=



000
FTUS42 KTAE 280500
TAFTLH
TAF
KTLH 280532Z 2806/2906 00000KT 5SM BR SKC
     FM280700 00000KT 1/4SM FG VV001
     FM281400 17005KT P6SM FEW030=



000
FTUS42 KTAE 280500
TAFABY
TAF
KABY 280532Z 2806/2906 00000KT P6SM SKC
     FM280800 00000KT 4SM BR SCT002
     FM281300 22005KT P6SM FEW030=



000
FTUS42 KTAE 272300
TAFABY
TAF
KABY 272337Z 2800/2824 18005KT P6SM SKC
     FM280900 00000KT 1SM BR SCT002
     FM281300 21005KT P6SM SCT030=



000
FTUS42 KTAE 272300
TAFVLD
TAF
KVLD 272337Z 2800/2824 00000KT P6SM SKC
     FM280500 00000KT 2SM BR SCT002
     FM280700 00000KT 1/4SM FG VV001
     FM281300 18005KT P6SM SCT030=



000
FTUS42 KTAE 272300
TAFDHN
TAF
KDHN 272337Z 2800/2824 00000KT P6SM SKC
     FM280800 00000KT 1/2SM FG VV002
     FM281300 19004KT P6SM SCT030=



000
FTUS42 KTAE 272300
TAFTLH
TAF
KTLH 272337Z 2800/2824 00000KT P6SM SCT250
     FM280700 00000KT 2SM BR BKN002
     FM280800 00000KT 1/4SM FG VV001
     FM281300 17005KT P6SM SCT030=



000
FTUS42 KTAE 272300
TAFDHN
TAF
KDHN 272320Z 2800/2824 18003KT P6SM SKC
     FM280800 00000KT 1/4SM FG VV001
     FM281400 18005KT P6SM FEW050=



000
FTUS42 KTAE 272300
TAFABY
TAF
KABY 272320Z 2800/2824 00000KT P6SM SKC
     FM281000 00000KT 1/4SM FG VV001
     FM281300 20005KT P6SM FEW050=



000
FTUS42 KTAE 272300
TAFTLH
TAF
KTLH 272320Z 2800/2824 18003KT P6SM SKC
     FM280600 00000KT 1/4SM FG VV001
     FM281300 15005KT P6SM FEW050=



000
FTUS42 KTAE 272300
TAFVLD
TAF
KVLD 272320Z 2800/2824 00000KT P6SM SKC
     FM280600 00000KT 1/4SM FG VV001
     FM281300 15005KT P6SM FEW050=



    US Dept of Commerce
    National Oceanic and Atmospheric Administration
    National Weather Service
    1325 East West Highway
    Silver Spring, MD 20910
    Page Author: NWS Internet Services Team
Disclaimer
Information Quality
Credits
Glossary
Privacy Policy
Freedom of Information Act (FOIA)
About Us
Career Opportunities